sensor_id;sensor_type;location;lat;lon;timestamp;P1;durP1;ratioP1;P2;durP2;ratioP2
3779;SDS011;1905;52.482;9.802;2023-02-18T00:01:32;6.53;;;1.23;;
3779;SDS011;1905;52.482;9.802;2023-02-18T00:04:00;3.97;;;1.27;;
3779;SDS011;1905;52.482;9.802;2023-02-18T00:06:30;5.97;;;1.80;;
3779;SDS011;1905;52.482;9.802;2023-02-18T00:08:59;9.70;;;1.40;;
3779;SDS011;1905;52.482;9.802;2023-02-18T00:11:28;2.47;;;1.43;;
3779;SDS011;1905;52.482;9.802;2023-02-18T00:13:58;2.73;;;1.30;;
3779;SDS011;1905;52.482;9.802;2023-02-18T00:16:28;3.27;;;1.23;;
3779;SDS011;1905;52.482;9.802;2023-02-18T00:18:57;2.07;;;1.50;;
3779;SDS011;1905;52.482;9.802;2023-02-18T00:21:26;14.27;;;1.90;;
3779;SDS011;1905;52.482;9.802;2023-02-18T00:23:56;4.63;;;1.27;;
3779;SDS011;1905;52.482;9.802;2023-02-18T00:26:24;2.90;;;1.53;;
3779;SDS011;1905;52.482;9.802;2023-02-18T00:28:52;3.53;;;1.87;;
3779;SDS011;1905;52.482;9.802;2023-02-18T00:31:21;2.70;;;1.43;;
3779;SDS011;1905;52.482;9.802;2023-02-18T00:33:50;2.90;;;1.27;;
3779;SDS011;1905;52.482;9.802;2023-02-18T00:36:19;4.63;;;2.07;;
3779;SDS011;1905;52.482;9.802;2023-02-18T00:38:49;5.73;;;1.17;;
3779;SDS011;1905;52.482;9.802;2023-02-18T00:41:20;3.23;;;2.00;;
3779;SDS011;1905;52.482;9.802;2023-02-18T00:43:49;2.07;;;1.50;;
3779;SDS011;1905;52.482;9.802;2023-02-18T00:46:18;3.17;;;2.57;;
3779;SDS011;1905;52.482;9.802;2023-02-18T00:48:46;5.60;;;2.60;;
3779;SDS011;1905;52.482;9.802;2023-02-18T00:51:13;8.90;;;1.87;;
3779;SDS011;1905;52.482;9.802;2023-02-18T00:53:41;1.60;;;1.30;;
3779;SDS011;1905;52.482;9.802;2023-02-18T00:56:14;4.83;;;1.10;;
3779;SDS011;1905;52.482;9.802;2023-02-18T00:58:43;5.63;;;1.60;;
3779;SDS011;1905;52.482;9.802;2023-02-18T01:01:10;1.43;;;1.30;;
3779;SDS011;1905;52.482;9.802;2023-02-18T01:03:39;4.10;;;1.23;;
3779;SDS011;1905;52.482;9.802;2023-02-18T01:06:10;5.37;;;1.67;;
3779;SDS011;1905;52.482;9.802;2023-02-18T01:08:39;3.73;;;1.40;;
3779;SDS011;1905;52.482;9.802;2023-02-18T01:11:08;12.80;;;1.70;;
3779;SDS011;1905;52.482;9.802;2023-02-18T01:13:36;7.07;;;1.37;;
3779;SDS011;1905;52.482;9.802;2023-02-18T01:16:06;4.50;;;1.50;;
3779;SDS011;1905;52.482;9.802;2023-02-18T01:18:36;2.43;;;1.43;;
3779;SDS011;1905;52.482;9.802;2023-02-18T01:21:05;5.40;;;1.77;;
3779;SDS011;1905;52.482;9.802;2023-02-18T01:23:34;8.63;;;1.27;;
3779;SDS011;1905;52.482;9.802;2023-02-18T01:26:03;7.90;;;1.73;;
3779;SDS011;1905;52.482;9.802;2023-02-18T01:28:32;3.60;;;1.27;;
3779;SDS011;1905;52.482;9.802;2023-02-18T01:31:03;9.67;;;1.73;;
3779;SDS011;1905;52.482;9.802;2023-02-18T01:33:33;2.10;;;1.90;;
3779;SDS011;1905;52.482;9.802;2023-02-18T01:36:02;3.30;;;1.40;;
3779;SDS011;1905;52.482;9.802;2023-02-18T01:38:30;7.43;;;2.07;;
3779;SDS011;1905;52.482;9.802;2023-02-18T01:40:57;6.73;;;1.43;;
3779;SDS011;1905;52.482;9.802;2023-02-18T01:43:27;4.77;;;1.67;;
3779;SDS011;1905;52.482;9.802;2023-02-18T01:48:46;5.93;;;1.77;;
3779;SDS011;1905;52.482;9.802;2023-02-18T01:51:18;2.20;;;1.23;;
3779;SDS011;1905;52.482;9.802;2023-02-18T01:53:51;3.20;;;1.57;;
3779;SDS011;1905;52.482;9.802;2023-02-18T01:56:23;3.20;;;1.30;;
3779;SDS011;1905;52.482;9.802;2023-02-18T01:58:54;2.83;;;1.50;;
3779;SDS011;1905;52.482;9.802;2023-02-18T02:01:25;1.33;;;1.20;;
3779;SDS011;1905;52.482;9.802;2023-02-18T02:03:55;1.80;;;1.20;;
3779;SDS011;1905;52.482;9.802;2023-02-18T02:06:23;4.20;;;2.03;;
3779;SDS011;1905;52.482;9.802;2023-02-18T02:08:53;4.80;;;1.60;;
3779;SDS011;1905;52.482;9.802;2023-02-18T02:11:36;3.80;;;1.20;;
3779;SDS011;1905;52.482;9.802;2023-02-18T02:14:16;5.70;;;1.83;;
3779;SDS011;1905;52.482;9.802;2023-02-18T02:17:03;4.87;;;1.70;;
3779;SDS011;1905;52.482;9.802;2023-02-18T02:19:44;5.53;;;1.67;;
3779;SDS011;1905;52.482;9.802;2023-02-18T02:25:43;3.53;;;1.30;;
3779;SDS011;1905;52.482;9.802;2023-02-18T02:28:35;4.30;;;1.60;;
3779;SDS011;1905;52.482;9.802;2023-02-18T02:34:33;3.80;;;1.97;;
3779;SDS011;1905;52.482;9.802;2023-02-18T02:37:08;5.00;;;1.63;;
3779;SDS011;1905;52.482;9.802;2023-02-18T02:39:43;7.50;;;1.73;;
3779;SDS011;1905;52.482;9.802;2023-02-18T02:42:23;2.40;;;1.20;;
3779;SDS011;1905;52.482;9.802;2023-02-18T02:44:57;5.63;;;1.57;;
3779;SDS011;1905;52.482;9.802;2023-02-18T02:47:31;4.90;;;1.87;;
3779;SDS011;1905;52.482;9.802;2023-02-18T02:50:12;2.03;;;1.50;;
3779;SDS011;1905;52.482;9.802;2023-02-18T02:52:45;4.73;;;1.50;;
3779;SDS011;1905;52.482;9.802;2023-02-18T02:55:18;3.13;;;1.23;;
3779;SDS011;1905;52.482;9.802;2023-02-18T02:57:49;5.13;;;1.20;;
3779;SDS011;1905;52.482;9.802;2023-02-18T03:00:22;3.43;;;1.07;;
3779;SDS011;1905;52.482;9.802;2023-02-18T03:03:03;2.40;;;1.77;;
3779;SDS011;1905;52.482;9.802;2023-02-18T03:05:47;5.10;;;2.00;;
3779;SDS011;1905;52.482;9.802;2023-02-18T03:08:29;4.50;;;1.30;;
3779;SDS011;1905;52.482;9.802;2023-02-18T03:11:08;2.33;;;1.37;;
3779;SDS011;1905;52.482;9.802;2023-02-18T03:13:44;3.00;;;1.50;;
3779;SDS011;1905;52.482;9.802;2023-02-18T03:16:25;3.73;;;1.70;;
3779;SDS011;1905;52.482;9.802;2023-02-18T03:18:59;3.00;;;1.60;;
3779;SDS011;1905;52.482;9.802;2023-02-18T03:21:35;8.53;;;1.63;;
3779;SDS011;1905;52.482;9.802;2023-02-18T03:24:08;3.43;;;1.53;;
3779;SDS011;1905;52.482;9.802;2023-02-18T03:26:43;5.03;;;1.90;;
3779;SDS011;1905;52.482;9.802;2023-02-18T03:29:14;3.63;;;1.20;;
3779;SDS011;1905;52.482;9.802;2023-02-18T03:31:48;2.00;;;1.50;;
3779;SDS011;1905;52.482;9.802;2023-02-18T03:34:24;5.17;;;1.50;;
3779;SDS011;1905;52.482;9.802;2023-02-18T03:36:57;3.73;;;1.53;;
3779;SDS011;1905;52.482;9.802;2023-02-18T03:39:27;4.03;;;2.13;;
3779;SDS011;1905;52.482;9.802;2023-02-18T03:41:56;7.83;;;1.80;;
3779;SDS011;1905;52.482;9.802;2023-02-18T03:44:24;4.80;;;1.83;;
3779;SDS011;1905;52.482;9.802;2023-02-18T03:46:52;3.73;;;1.80;;
3779;SDS011;1905;52.482;9.802;2023-02-18T03:49:20;6.00;;;1.77;;
3779;SDS011;1905;52.482;9.802;2023-02-18T03:51:47;6.83;;;1.93;;
3779;SDS011;1905;52.482;9.802;2023-02-18T03:54:16;6.60;;;2.07;;
3779;SDS011;1905;52.482;9.802;2023-02-18T03:56:45;2.53;;;1.80;;
3779;SDS011;1905;52.482;9.802;2023-02-18T03:59:13;11.50;;;2.57;;
3779;SDS011;1905;52.482;9.802;2023-02-18T04:01:40;4.93;;;1.97;;
3779;SDS011;1905;52.482;9.802;2023-02-18T04:04:08;4.30;;;1.93;;
3779;SDS011;1905;52.482;9.802;2023-02-18T04:06:36;2.80;;;1.87;;
3779;SDS011;1905;52.482;9.802;2023-02-18T04:09:03;3.20;;;1.70;;
3779;SDS011;1905;52.482;9.802;2023-02-18T04:11:36;2.17;;;1.67;;
3779;SDS011;1905;52.482;9.802;2023-02-18T04:14:04;8.00;;;2.77;;
3779;SDS011;1905;52.482;9.802;2023-02-18T04:16:33;5.30;;;2.90;;
3779;SDS011;1905;52.482;9.802;2023-02-18T04:19:01;3.80;;;2.80;;
3779;SDS011;1905;52.482;9.802;2023-02-18T04:21:29;6.10;;;3.57;;
3779;SDS011;1905;52.482;9.802;2023-02-18T04:23:57;5.57;;;3.43;;
3779;SDS011;1905;52.482;9.802;2023-02-18T04:26:24;5.10;;;4.00;;
3779;SDS011;1905;52.482;9.802;2023-02-18T04:28:54;12.67;;;5.03;;
3779;SDS011;1905;52.482;9.802;2023-02-18T04:31:21;4.73;;;3.67;;
3779;SDS011;1905;52.482;9.802;2023-02-18T04:33:49;9.63;;;3.40;;
3779;SDS011;1905;52.482;9.802;2023-02-18T04:36:17;13.57;;;4.60;;
3779;SDS011;1905;52.482;9.802;2023-02-18T04:38:44;10.90;;;3.80;;
3779;SDS011;1905;52.482;9.802;2023-02-18T04:41:12;8.57;;;4.00;;
3779;SDS011;1905;52.482;9.802;2023-02-18T04:43:39;8.07;;;4.37;;
3779;SDS011;1905;52.482;9.802;2023-02-18T04:46:08;9.60;;;3.50;;
3779;SDS011;1905;52.482;9.802;2023-02-18T04:48:36;7.80;;;3.90;;
3779;SDS011;1905;52.482;9.802;2023-02-18T04:51:05;9.47;;;3.77;;
3779;SDS011;1905;52.482;9.802;2023-02-18T04:53:33;9.37;;;2.90;;
3779;SDS011;1905;52.482;9.802;2023-02-18T04:56:01;7.30;;;3.50;;
3779;SDS011;1905;52.482;9.802;2023-02-18T04:58:29;6.60;;;2.80;;
3779;SDS011;1905;52.482;9.802;2023-02-18T05:00:57;7.90;;;3.00;;
3779;SDS011;1905;52.482;9.802;2023-02-18T05:03:27;10.97;;;3.57;;
3779;SDS011;1905;52.482;9.802;2023-02-18T05:05:55;12.90;;;4.03;;
3779;SDS011;1905;52.482;9.802;2023-02-18T05:08:23;6.20;;;3.17;;
3779;SDS011;1905;52.482;9.802;2023-02-18T05:10:50;6.63;;;3.00;;
3779;SDS011;1905;52.482;9.802;2023-02-18T05:13:18;7.83;;;3.27;;
3779;SDS011;1905;52.482;9.802;2023-02-18T05:15:47;6.30;;;3.63;;
3779;SDS011;1905;52.482;9.802;2023-02-18T05:18:15;9.87;;;2.90;;
3779;SDS011;1905;52.482;9.802;2023-02-18T05:20:44;3.60;;;2.43;;
3779;SDS011;1905;52.482;9.802;2023-02-18T05:23:12;6.90;;;3.70;;
3779;SDS011;1905;52.482;9.802;2023-02-18T05:25:40;10.30;;;5.00;;
3779;SDS011;1905;52.482;9.802;2023-02-18T05:28:07;8.13;;;3.73;;
3779;SDS011;1905;52.482;9.802;2023-02-18T05:30:35;4.90;;;3.10;;
3779;SDS011;1905;52.482;9.802;2023-02-18T05:33:02;7.87;;;2.87;;
3779;SDS011;1905;52.482;9.802;2023-02-18T05:35:30;4.00;;;2.60;;
3779;SDS011;1905;52.482;9.802;2023-02-18T05:37:59;8.27;;;3.80;;
3779;SDS011;1905;52.482;9.802;2023-02-18T05:40:27;4.70;;;2.57;;
3779;SDS011;1905;52.482;9.802;2023-02-18T05:42:55;7.53;;;2.77;;
3779;SDS011;1905;52.482;9.802;2023-02-18T05:45:22;3.63;;;2.90;;
3779;SDS011;1905;52.482;9.802;2023-02-18T05:47:50;4.80;;;3.20;;
3779;SDS011;1905;52.482;9.802;2023-02-18T05:50:17;9.30;;;3.50;;
3779;SDS011;1905;52.482;9.802;2023-02-18T05:52:45;10.17;;;3.50;;
3779;SDS011;1905;52.482;9.802;2023-02-18T05:55:14;9.13;;;3.10;;
3779;SDS011;1905;52.482;9.802;2023-02-18T05:57:42;7.07;;;3.57;;
3779;SDS011;1905;52.482;9.802;2023-02-18T06:00:10;10.90;;;3.80;;
3779;SDS011;1905;52.482;9.802;2023-02-18T06:02:38;7.03;;;3.20;;
3779;SDS011;1905;52.482;9.802;2023-02-18T06:05:06;7.53;;;2.90;;
3779;SDS011;1905;52.482;9.802;2023-02-18T06:07:35;5.00;;;3.70;;
3779;SDS011;1905;52.482;9.802;2023-02-18T06:10:03;8.33;;;3.50;;
3779;SDS011;1905;52.482;9.802;2023-02-18T06:12:35;4.57;;;2.80;;
3779;SDS011;1905;52.482;9.802;2023-02-18T06:15:03;9.37;;;3.40;;
3779;SDS011;1905;52.482;9.802;2023-02-18T06:17:31;7.53;;;3.40;;
3779;SDS011;1905;52.482;9.802;2023-02-18T06:19:59;6.37;;;4.10;;
3779;SDS011;1905;52.482;9.802;2023-02-18T06:22:27;7.07;;;3.97;;
3779;SDS011;1905;52.482;9.802;2023-02-18T06:24:55;3.43;;;2.43;;
3779;SDS011;1905;52.482;9.802;2023-02-18T06:27:22;8.10;;;4.20;;
3779;SDS011;1905;52.482;9.802;2023-02-18T06:29:51;6.27;;;3.23;;
3779;SDS011;1905;52.482;9.802;2023-02-18T06:32:19;5.67;;;3.20;;
3779;SDS011;1905;52.482;9.802;2023-02-18T06:34:47;7.07;;;3.50;;
3779;SDS011;1905;52.482;9.802;2023-02-18T06:37:14;5.73;;;3.57;;
3779;SDS011;1905;52.482;9.802;2023-02-18T06:39:42;12.70;;;3.43;;
3779;SDS011;1905;52.482;9.802;2023-02-18T06:42:10;7.60;;;3.80;;
3779;SDS011;1905;52.482;9.802;2023-02-18T06:44:40;6.83;;;4.17;;
3779;SDS011;1905;52.482;9.802;2023-02-18T06:47:09;5.97;;;4.13;;
3779;SDS011;1905;52.482;9.802;2023-02-18T06:49:37;8.70;;;3.80;;
3779;SDS011;1905;52.482;9.802;2023-02-18T06:52:07;8.50;;;3.60;;
3779;SDS011;1905;52.482;9.802;2023-02-18T06:54:35;5.50;;;3.93;;
3779;SDS011;1905;52.482;9.802;2023-02-18T06:57:03;6.53;;;3.20;;
3779;SDS011;1905;52.482;9.802;2023-02-18T06:59:30;9.63;;;4.40;;
3779;SDS011;1905;52.482;9.802;2023-02-18T07:01:58;6.93;;;4.20;;
3779;SDS011;1905;52.482;9.802;2023-02-18T07:04:30;5.93;;;3.73;;
3779;SDS011;1905;52.482;9.802;2023-02-18T07:06:58;5.43;;;4.23;;
3779;SDS011;1905;52.482;9.802;2023-02-18T07:09:25;12.30;;;5.17;;
3779;SDS011;1905;52.482;9.802;2023-02-18T07:11:53;7.47;;;3.67;;
3779;SDS011;1905;52.482;9.802;2023-02-18T07:14:20;8.63;;;3.97;;
3779;SDS011;1905;52.482;9.802;2023-02-18T07:16:49;7.07;;;4.00;;
3779;SDS011;1905;52.482;9.802;2023-02-18T07:19:17;5.77;;;3.57;;
3779;SDS011;1905;52.482;9.802;2023-02-18T07:21:45;7.13;;;4.20;;
3779;SDS011;1905;52.482;9.802;2023-02-18T07:24:13;13.13;;;4.80;;
3779;SDS011;1905;52.482;9.802;2023-02-18T07:26:41;7.60;;;5.23;;
3779;SDS011;1905;52.482;9.802;2023-02-18T07:29:09;13.20;;;5.13;;
3779;SDS011;1905;52.482;9.802;2023-02-18T07:31:40;8.97;;;5.70;;
3779;SDS011;1905;52.482;9.802;2023-02-18T07:34:11;10.23;;;5.03;;
3779;SDS011;1905;52.482;9.802;2023-02-18T07:36:39;10.27;;;5.50;;
3779;SDS011;1905;52.482;9.802;2023-02-18T07:39:12;12.57;;;7.37;;
3779;SDS011;1905;52.482;9.802;2023-02-18T07:41:39;15.87;;;8.17;;
3779;SDS011;1905;52.482;9.802;2023-02-18T07:44:13;15.07;;;7.17;;
3779;SDS011;1905;52.482;9.802;2023-02-18T07:46:41;13.03;;;7.40;;
3779;SDS011;1905;52.482;9.802;2023-02-18T07:49:16;14.40;;;7.97;;
3779;SDS011;1905;52.482;9.802;2023-02-18T07:51:45;14.70;;;7.30;;
3779;SDS011;1905;52.482;9.802;2023-02-18T07:54:16;15.27;;;9.30;;
3779;SDS011;1905;52.482;9.802;2023-02-18T07:56:44;15.17;;;8.00;;
3779;SDS011;1905;52.482;9.802;2023-02-18T07:59:12;18.43;;;8.10;;
3779;SDS011;1905;52.482;9.802;2023-02-18T08:01:40;19.47;;;9.40;;
3779;SDS011;1905;52.482;9.802;2023-02-18T08:04:10;13.10;;;6.90;;
3779;SDS011;1905;52.482;9.802;2023-02-18T08:06:39;21.50;;;9.87;;
3779;SDS011;1905;52.482;9.802;2023-02-18T08:09:08;20.83;;;9.30;;
3779;SDS011;1905;52.482;9.802;2023-02-18T08:11:37;17.40;;;9.50;;
3779;SDS011;1905;52.482;9.802;2023-02-18T08:14:06;19.47;;;8.97;;
3779;SDS011;1905;52.482;9.802;2023-02-18T08:16:34;14.63;;;7.77;;
3779;SDS011;1905;52.482;9.802;2023-02-18T08:19:04;14.17;;;8.83;;
3779;SDS011;1905;52.482;9.802;2023-02-18T08:21:31;15.43;;;7.97;;
3779;SDS011;1905;52.482;9.802;2023-02-18T08:23:59;18.00;;;9.00;;
3779;SDS011;1905;52.482;9.802;2023-02-18T08:26:34;10.37;;;5.40;;
3779;SDS011;1905;52.482;9.802;2023-02-18T08:29:03;14.97;;;9.07;;
3779;SDS011;1905;52.482;9.802;2023-02-18T08:31:31;12.07;;;6.23;;
3779;SDS011;1905;52.482;9.802;2023-02-18T08:33:59;10.13;;;5.80;;
3779;SDS011;1905;52.482;9.802;2023-02-18T08:36:27;9.10;;;5.67;;
3779;SDS011;1905;52.482;9.802;2023-02-18T08:38:55;14.17;;;5.90;;
3779;SDS011;1905;52.482;9.802;2023-02-18T08:41:23;12.13;;;5.90;;
3779;SDS011;1905;52.482;9.802;2023-02-18T08:43:51;8.97;;;4.83;;
3779;SDS011;1905;52.482;9.802;2023-02-18T08:46:20;6.57;;;3.90;;
3779;SDS011;1905;52.482;9.802;2023-02-18T08:49:00;5.03;;;3.07;;
3779;SDS011;1905;52.482;9.802;2023-02-18T08:51:28;7.13;;;3.57;;
3779;SDS011;1905;52.482;9.802;2023-02-18T08:53:56;6.47;;;3.77;;
3779;SDS011;1905;52.482;9.802;2023-02-18T08:56:24;8.03;;;3.77;;
3779;SDS011;1905;52.482;9.802;2023-02-18T08:58:52;5.20;;;3.00;;
3779;SDS011;1905;52.482;9.802;2023-02-18T09:01:21;4.20;;;2.70;;
3779;SDS011;1905;52.482;9.802;2023-02-18T09:03:49;5.93;;;3.27;;
3779;SDS011;1905;52.482;9.802;2023-02-18T09:06:17;4.10;;;3.07;;
3779;SDS011;1905;52.482;9.802;2023-02-18T09:08:44;3.07;;;2.77;;
3779;SDS011;1905;52.482;9.802;2023-02-18T09:11:13;4.27;;;3.03;;
3779;SDS011;1905;52.482;9.802;2023-02-18T09:13:41;3.97;;;2.63;;
3779;SDS011;1905;52.482;9.802;2023-02-18T09:16:11;2.67;;;2.13;;
3779;SDS011;1905;52.482;9.802;2023-02-18T09:18:41;4.80;;;2.30;;
3779;SDS011;1905;52.482;9.802;2023-02-18T09:21:10;3.33;;;2.47;;
3779;SDS011;1905;52.482;9.802;2023-02-18T09:23:39;4.93;;;2.47;;
3779;SDS011;1905;52.482;9.802;2023-02-18T09:26:07;4.67;;;2.83;;
3779;SDS011;1905;52.482;9.802;2023-02-18T09:28:36;3.50;;;2.00;;
3779;SDS011;1905;52.482;9.802;2023-02-18T09:31:04;3.43;;;2.37;;
3779;SDS011;1905;52.482;9.802;2023-02-18T09:33:34;2.20;;;1.80;;
3779;SDS011;1905;52.482;9.802;2023-02-18T09:36:06;2.17;;;1.67;;
3779;SDS011;1905;52.482;9.802;2023-02-18T09:38:33;3.50;;;1.97;;
3779;SDS011;1905;52.482;9.802;2023-02-18T09:41:02;3.40;;;2.70;;
3779;SDS011;1905;52.482;9.802;2023-02-18T09:43:34;1.73;;;1.57;;
3779;SDS011;1905;52.482;9.802;2023-02-18T09:46:08;2.97;;;2.23;;
3779;SDS011;1905;52.482;9.802;2023-02-18T09:48:44;5.13;;;2.53;;
3779;SDS011;1905;52.482;9.802;2023-02-18T09:51:15;2.40;;;2.20;;
3779;SDS011;1905;52.482;9.802;2023-02-18T09:53:44;2.43;;;1.70;;
3779;SDS011;1905;52.482;9.802;2023-02-18T09:56:25;1.20;;;1.10;;
3779;SDS011;1905;52.482;9.802;2023-02-18T09:58:54;1.50;;;1.40;;
3779;SDS011;1905;52.482;9.802;2023-02-18T10:01:26;2.27;;;1.33;;
3779;SDS011;1905;52.482;9.802;2023-02-18T10:03:58;1.27;;;1.17;;
3779;SDS011;1905;52.482;9.802;2023-02-18T10:06:30;1.57;;;1.47;;
3779;SDS011;1905;52.482;9.802;2023-02-18T10:09:01;1.30;;;1.20;;
3779;SDS011;1905;52.482;9.802;2023-02-18T10:11:31;1.30;;;1.20;;
3779;SDS011;1905;52.482;9.802;2023-02-18T10:14:01;1.93;;;1.50;;
3779;SDS011;1905;52.482;9.802;2023-02-18T10:16:29;1.83;;;1.73;;
3779;SDS011;1905;52.482;9.802;2023-02-18T10:18:58;1.67;;;1.00;;
3779;SDS011;1905;52.482;9.802;2023-02-18T10:21:33;1.40;;;1.30;;
3779;SDS011;1905;52.482;9.802;2023-02-18T10:24:03;1.53;;;1.43;;
3779;SDS011;1905;52.482;9.802;2023-02-18T10:26:33;1.40;;;1.30;;
3779;SDS011;1905;52.482;9.802;2023-02-18T10:29:04;1.73;;;1.63;;
3779;SDS011;1905;52.482;9.802;2023-02-18T10:31:43;2.10;;;1.50;;
3779;SDS011;1905;52.482;9.802;2023-02-18T10:34:18;1.70;;;1.60;;
3779;SDS011;1905;52.482;9.802;2023-02-18T10:37:00;1.33;;;1.23;;
3779;SDS011;1905;52.482;9.802;2023-02-18T10:39:41;2.40;;;1.80;;
3779;SDS011;1905;52.482;9.802;2023-02-18T10:42:20;1.20;;;1.10;;
3779;SDS011;1905;52.482;9.802;2023-02-18T10:44:58;1.40;;;1.30;;
3779;SDS011;1905;52.482;9.802;2023-02-18T10:47:35;2.20;;;1.33;;
3779;SDS011;1905;52.482;9.802;2023-02-18T10:50:08;1.27;;;1.17;;
3779;SDS011;1905;52.482;9.802;2023-02-18T10:52:42;1.50;;;1.10;;
3779;SDS011;1905;52.482;9.802;2023-02-18T10:55:12;1.20;;;1.10;;
3779;SDS011;1905;52.482;9.802;2023-02-18T10:57:44;1.10;;;1.10;;
3779;SDS011;1905;52.482;9.802;2023-02-18T11:00:17;1.00;;;1.00;;
3779;SDS011;1905;52.482;9.802;2023-02-18T11:03:09;1.00;;;1.00;;
3779;SDS011;1905;52.482;9.802;2023-02-18T11:05:42;0.80;;;0.70;;
3779;SDS011;1905;52.482;9.802;2023-02-18T11:08:15;1.10;;;1.00;;
3779;SDS011;1905;52.482;9.802;2023-02-18T11:10:47;1.00;;;0.80;;
3779;SDS011;1905;52.482;9.802;2023-02-18T11:13:16;1.60;;;1.37;;
3779;SDS011;1905;52.482;9.802;2023-02-18T11:15:53;1.27;;;1.13;;
3779;SDS011;1905;52.482;9.802;2023-02-18T11:18:27;3.00;;;1.10;;
3779;SDS011;1905;52.482;9.802;2023-02-18T11:20:59;1.03;;;1.00;;
3779;SDS011;1905;52.482;9.802;2023-02-18T11:23:30;3.40;;;1.20;;
3779;SDS011;1905;52.482;9.802;2023-02-18T11:25:59;1.10;;;1.00;;
3779;SDS011;1905;52.482;9.802;2023-02-18T11:28:35;0.97;;;0.97;;
3779;SDS011;1905;52.482;9.802;2023-02-18T11:31:08;1.10;;;1.00;;
3779;SDS011;1905;52.482;9.802;2023-02-18T11:33:39;2.17;;;1.80;;
3779;SDS011;1905;52.482;9.802;2023-02-18T11:36:14;1.47;;;1.37;;
3779;SDS011;1905;52.482;9.802;2023-02-18T11:38:48;0.97;;;0.93;;
3779;SDS011;1905;52.482;9.802;2023-02-18T11:41:18;1.20;;;1.07;;
3779;SDS011;1905;52.482;9.802;2023-02-18T11:43:48;1.27;;;1.17;;
3779;SDS011;1905;52.482;9.802;2023-02-18T11:46:18;1.30;;;1.20;;
3779;SDS011;1905;52.482;9.802;2023-02-18T11:48:47;1.53;;;1.37;;
3779;SDS011;1905;52.482;9.802;2023-02-18T11:51:17;1.30;;;1.20;;
3779;SDS011;1905;52.482;9.802;2023-02-18T11:53:54;1.50;;;1.40;;
3779;SDS011;1905;52.482;9.802;2023-02-18T11:56:25;4.50;;;1.40;;
3779;SDS011;1905;52.482;9.802;2023-02-18T11:58:56;1.73;;;1.63;;
3779;SDS011;1905;52.482;9.802;2023-02-18T12:01:31;1.50;;;1.40;;
3779;SDS011;1905;52.482;9.802;2023-02-18T12:04:11;2.03;;;1.83;;
3779;SDS011;1905;52.482;9.802;2023-02-18T12:06:42;1.97;;;1.70;;
3779;SDS011;1905;52.482;9.802;2023-02-18T12:09:21;3.80;;;1.57;;
3779;SDS011;1905;52.482;9.802;2023-02-18T12:11:55;2.93;;;1.60;;
3779;SDS011;1905;52.482;9.802;2023-02-18T12:14:27;1.93;;;1.80;;
3779;SDS011;1905;52.482;9.802;2023-02-18T12:19:55;2.00;;;1.70;;
3779;SDS011;1905;52.482;9.802;2023-02-18T12:22:35;2.17;;;1.97;;
3779;SDS011;1905;52.482;9.802;2023-02-18T12:25:19;1.40;;;1.30;;
3779;SDS011;1905;52.482;9.802;2023-02-18T12:27:55;1.43;;;1.33;;
3779;SDS011;1905;52.482;9.802;2023-02-18T12:30:36;1.70;;;1.10;;
3779;SDS011;1905;52.482;9.802;2023-02-18T12:33:16;1.40;;;1.20;;
3779;SDS011;1905;52.482;9.802;2023-02-18T12:35:55;1.67;;;1.47;;
3779;SDS011;1905;52.482;9.802;2023-02-18T12:38:40;1.23;;;1.13;;
3779;SDS011;1905;52.482;9.802;2023-02-18T12:41:26;1.23;;;1.07;;
3779;SDS011;1905;52.482;9.802;2023-02-18T12:44:06;1.33;;;1.10;;
3779;SDS011;1905;52.482;9.802;2023-02-18T12:46:48;1.87;;;1.70;;
3779;SDS011;1905;52.482;9.802;2023-02-18T12:49:34;1.43;;;1.33;;
3779;SDS011;1905;52.482;9.802;2023-02-18T12:52:18;4.33;;;1.70;;
3779;SDS011;1905;52.482;9.802;2023-02-18T12:55:02;5.57;;;1.60;;
3779;SDS011;1905;52.482;9.802;2023-02-18T12:57:51;1.77;;;1.67;;
3779;SDS011;1905;52.482;9.802;2023-02-18T13:06:47;1.60;;;1.50;;
3779;SDS011;1905;52.482;9.802;2023-02-18T13:09:31;1.90;;;1.40;;
3779;SDS011;1905;52.482;9.802;2023-02-18T13:12:10;3.00;;;2.07;;
3779;SDS011;1905;52.482;9.802;2023-02-18T13:14:47;3.00;;;2.17;;
3779;SDS011;1905;52.482;9.802;2023-02-18T13:17:26;1.93;;;1.83;;
3779;SDS011;1905;52.482;9.802;2023-02-18T13:20:00;4.40;;;2.10;;
3779;SDS011;1905;52.482;9.802;2023-02-18T13:22:31;2.33;;;1.90;;
3779;SDS011;1905;52.482;9.802;2023-02-18T13:25:00;2.33;;;1.93;;
3779;SDS011;1905;52.482;9.802;2023-02-18T13:27:30;1.90;;;1.80;;
3779;SDS011;1905;52.482;9.802;2023-02-18T13:30:12;1.70;;;1.60;;
3779;SDS011;1905;52.482;9.802;2023-02-18T13:32:48;2.50;;;2.17;;
3779;SDS011;1905;52.482;9.802;2023-02-18T13:35:32;1.90;;;1.60;;
3779;SDS011;1905;52.482;9.802;2023-02-18T13:38:11;2.40;;;1.93;;
3779;SDS011;1905;52.482;9.802;2023-02-18T13:40:52;2.47;;;1.87;;
3779;SDS011;1905;52.482;9.802;2023-02-18T13:43:28;3.23;;;1.90;;
3779;SDS011;1905;52.482;9.802;2023-02-18T13:46:07;1.70;;;1.60;;
3779;SDS011;1905;52.482;9.802;2023-02-18T13:48:39;3.07;;;1.73;;
3779;SDS011;1905;52.482;9.802;2023-02-18T13:51:11;3.10;;;1.53;;
3779;SDS011;1905;52.482;9.802;2023-02-18T13:53:41;4.50;;;2.10;;
3779;SDS011;1905;52.482;9.802;2023-02-18T13:56:19;2.20;;;1.60;;
3779;SDS011;1905;52.482;9.802;2023-02-18T13:58:49;1.67;;;1.57;;
3779;SDS011;1905;52.482;9.802;2023-02-18T14:01:21;4.27;;;2.47;;
3779;SDS011;1905;52.482;9.802;2023-02-18T14:04:00;4.93;;;2.10;;
3779;SDS011;1905;52.482;9.802;2023-02-18T14:06:29;3.00;;;2.27;;
3779;SDS011;1905;52.482;9.802;2023-02-18T14:09:03;3.23;;;2.40;;
3779;SDS011;1905;52.482;9.802;2023-02-18T14:11:47;2.23;;;2.07;;
3779;SDS011;1905;52.482;9.802;2023-02-18T14:14:33;3.20;;;2.90;;
3779;SDS011;1905;52.482;9.802;2023-02-18T14:22:54;2.53;;;2.33;;
3779;SDS011;1905;52.482;9.802;2023-02-18T14:25:26;6.93;;;2.60;;
3779;SDS011;1905;52.482;9.802;2023-02-18T14:28:03;3.83;;;2.60;;
3779;SDS011;1905;52.482;9.802;2023-02-18T14:31:06;3.60;;;2.07;;
3779;SDS011;1905;52.482;9.802;2023-02-18T14:36:59;2.80;;;2.60;;
3779;SDS011;1905;52.482;9.802;2023-02-18T14:39:42;2.67;;;2.10;;
3779;SDS011;1905;52.482;9.802;2023-02-18T14:42:22;3.97;;;2.53;;
3779;SDS011;1905;52.482;9.802;2023-02-18T14:45:02;2.13;;;1.87;;
3779;SDS011;1905;52.482;9.802;2023-02-18T14:47:40;3.17;;;2.87;;
3779;SDS011;1905;52.482;9.802;2023-02-18T14:50:23;7.73;;;3.00;;
3779;SDS011;1905;52.482;9.802;2023-02-18T14:52:52;2.50;;;2.30;;
3779;SDS011;1905;52.482;9.802;2023-02-18T14:55:24;2.43;;;2.13;;
3779;SDS011;1905;52.482;9.802;2023-02-18T14:57:55;3.90;;;3.00;;
3779;SDS011;1905;52.482;9.802;2023-02-18T15:00:27;6.30;;;3.17;;
3779;SDS011;1905;52.482;9.802;2023-02-18T15:03:00;4.17;;;3.30;;
3779;SDS011;1905;52.482;9.802;2023-02-18T15:05:31;6.97;;;3.30;;
3779;SDS011;1905;52.482;9.802;2023-02-18T15:08:03;7.03;;;3.23;;
3779;SDS011;1905;52.482;9.802;2023-02-18T15:10:35;3.40;;;2.80;;
3779;SDS011;1905;52.482;9.802;2023-02-18T15:13:07;3.90;;;2.70;;
3779;SDS011;1905;52.482;9.802;2023-02-18T15:15:39;5.43;;;3.20;;
3779;SDS011;1905;52.482;9.802;2023-02-18T15:18:11;4.50;;;3.50;;
3779;SDS011;1905;52.482;9.802;2023-02-18T15:20:48;3.23;;;3.03;;
3779;SDS011;1905;52.482;9.802;2023-02-18T15:23:16;5.20;;;3.17;;
3779;SDS011;1905;52.482;9.802;2023-02-18T15:25:45;14.77;;;4.70;;
3779;SDS011;1905;52.482;9.802;2023-02-18T15:28:22;5.63;;;3.30;;
3779;SDS011;1905;52.482;9.802;2023-02-18T15:30:51;5.30;;;3.53;;
3779;SDS011;1905;52.482;9.802;2023-02-18T15:33:20;5.27;;;3.10;;
3779;SDS011;1905;52.482;9.802;2023-02-18T15:35:49;4.93;;;4.43;;
3779;SDS011;1905;52.482;9.802;2023-02-18T15:38:17;9.60;;;4.40;;
3779;SDS011;1905;52.482;9.802;2023-02-18T15:40:46;6.97;;;3.33;;
3779;SDS011;1905;52.482;9.802;2023-02-18T15:43:18;4.50;;;3.67;;
3779;SDS011;1905;52.482;9.802;2023-02-18T15:45:50;8.00;;;5.10;;
3779;SDS011;1905;52.482;9.802;2023-02-18T15:48:22;4.50;;;4.10;;
3779;SDS011;1905;52.482;9.802;2023-02-18T15:51:02;3.60;;;2.70;;
3779;SDS011;1905;52.482;9.802;2023-02-18T15:53:42;3.47;;;2.90;;
3779;SDS011;1905;52.482;9.802;2023-02-18T15:56:14;5.03;;;3.63;;
3779;SDS011;1905;52.482;9.802;2023-02-18T15:59:06;5.63;;;3.43;;
3779;SDS011;1905;52.482;9.802;2023-02-18T16:01:36;5.13;;;3.37;;
3779;SDS011;1905;52.482;9.802;2023-02-18T16:04:04;5.37;;;3.63;;
3779;SDS011;1905;52.482;9.802;2023-02-18T16:06:36;9.30;;;4.97;;
3779;SDS011;1905;52.482;9.802;2023-02-18T16:09:06;4.30;;;3.40;;
3779;SDS011;1905;52.482;9.802;2023-02-18T16:11:42;11.53;;;5.40;;